sensor_id;sensor_type;location;lat;lon;timestamp;pressure;altitude;pressure_sealevel;temperature;humidity
80137;BME280;69466;55.948;37.484;2023-12-22T00:01:22;97317.19;;;1.70;77.43
80137;BME280;69466;55.948;37.484;2023-12-22T00:03:48;97311.19;;;1.74;77.39
80137;BME280;69466;55.948;37.484;2023-12-22T00:06:16;97316.16;;;1.71;77.07
80137;BME280;69466;55.948;37.484;2023-12-22T00:08:42;97301.59;;;1.67;77.49
80137;BME280;69466;55.948;37.484;2023-12-22T00:11:08;97316.59;;;1.68;77.33
80137;BME280;69466;55.948;37.484;2023-12-22T00:13:34;97306.38;;;1.65;77.59
80137;BME280;69466;55.948;37.484;2023-12-22T00:16:02;97305.31;;;1.66;77.38
80137;BME280;69466;55.948;37.484;2023-12-22T00:18:28;97302.25;;;1.62;76.83
80137;BME280;69466;55.948;37.484;2023-12-22T00:20:54;97303.03;;;1.69;77.20
80137;BME280;69466;55.948;37.484;2023-12-22T00:23:21;97301.03;;;1.65;76.80
80137;BME280;69466;55.948;37.484;2023-12-22T00:28:57;97287.25;;;1.61;76.81
80137;BME280;69466;55.948;37.484;2023-12-22T00:31:23;97286.31;;;1.56;76.80
80137;BME280;69466;55.948;37.484;2023-12-22T00:33:49;97293.72;;;1.54;77.01
80137;BME280;69466;55.948;37.484;2023-12-22T00:36:15;97276.91;;;1.47;77.11
80137;BME280;69466;55.948;37.484;2023-12-22T00:38:43;97279.00;;;1.45;77.11
80137;BME280;69466;55.948;37.484;2023-12-22T00:41:10;97279.31;;;1.55;76.92
80137;BME280;69466;55.948;37.484;2023-12-22T00:43:37;97278.31;;;1.49;76.57
80137;BME280;69466;55.948;37.484;2023-12-22T00:46:03;97281.16;;;1.54;75.99
80137;BME280;69466;55.948;37.484;2023-12-22T00:48:37;97255.38;;;1.42;75.66
80137;BME280;69466;55.948;37.484;2023-12-22T00:51:06;97267.09;;;1.41;75.76
80137;BME280;69466;55.948;37.484;2023-12-22T00:53:33;97267.94;;;1.41;75.38
80137;BME280;69466;55.948;37.484;2023-12-22T00:56:31;97278.78;;;1.46;75.66
80137;BME280;69466;55.948;37.484;2023-12-22T00:58:57;97268.75;;;1.42;74.99
80137;BME280;69466;55.948;37.484;2023-12-22T01:01:23;97249.06;;;1.36;74.95
80137;BME280;69466;55.948;37.484;2023-12-22T01:03:49;97255.22;;;1.37;74.41
80137;BME280;69466;55.948;37.484;2023-12-22T01:06:15;97269.13;;;1.45;74.04
80137;BME280;69466;55.948;37.484;2023-12-22T01:08:42;97239.06;;;1.25;74.68
80137;BME280;69466;55.948;37.484;2023-12-22T01:14:46;97271.50;;;1.53;74.08
80137;BME280;69466;55.948;37.484;2023-12-22T01:17:14;97277.66;;;1.54;74.05
80137;BME280;69466;55.948;37.484;2023-12-22T01:19:40;97264.16;;;1.49;74.01
80137;BME280;69466;55.948;37.484;2023-12-22T01:22:06;97267.44;;;1.51;73.69
80137;BME280;69466;55.948;37.484;2023-12-22T01:24:32;97263.94;;;1.50;73.96
80137;BME280;69466;55.948;37.484;2023-12-22T01:26:58;97264.75;;;1.51;73.17
80137;BME280;69466;55.948;37.484;2023-12-22T01:29:25;97261.84;;;1.52;72.63
80137;BME280;69466;55.948;37.484;2023-12-22T01:31:51;97269.22;;;1.57;72.50
80137;BME280;69466;55.948;37.484;2023-12-22T01:34:17;97266.13;;;1.60;72.14
80137;BME280;69466;55.948;37.484;2023-12-22T01:36:43;97263.84;;;1.57;72.41
80137;BME280;69466;55.948;37.484;2023-12-22T01:39:09;97273.34;;;1.53;72.47
80137;BME280;69466;55.948;37.484;2023-12-22T01:41:35;97249.81;;;1.43;72.94
80137;BME280;69466;55.948;37.484;2023-12-22T01:44:01;97258.75;;;1.55;72.36
80137;BME280;69466;55.948;37.484;2023-12-22T01:46:27;97240.59;;;1.39;72.86
80137;BME280;69466;55.948;37.484;2023-12-22T01:48:54;97254.72;;;1.46;72.68
80137;BME280;69466;55.948;37.484;2023-12-22T01:51:20;97251.06;;;1.41;72.59
80137;BME280;69466;55.948;37.484;2023-12-22T01:53:46;97258.06;;;1.42;72.71
80137;BME280;69466;55.948;37.484;2023-12-22T01:56:12;97248.78;;;1.44;72.28
80137;BME280;69466;55.948;37.484;2023-12-22T01:58:38;97245.28;;;1.44;72.15
80137;BME280;69466;55.948;37.484;2023-12-22T02:01:15;97249.53;;;1.51;72.26
80137;BME280;69466;55.948;37.484;2023-12-22T02:03:41;97234.53;;;1.50;71.83
80137;BME280;69466;55.948;37.484;2023-12-22T02:06:07;97242.59;;;1.44;72.00
80137;BME280;69466;55.948;37.484;2023-12-22T02:08:33;97244.56;;;1.55;71.06
80137;BME280;69466;55.948;37.484;2023-12-22T02:11:01;97227.19;;;1.46;71.24
80137;BME280;69466;55.948;37.484;2023-12-22T02:13:27;97248.22;;;1.60;71.19
80137;BME280;69466;55.948;37.484;2023-12-22T02:16:01;97248.16;;;1.67;71.19
80137;BME280;69466;55.948;37.484;2023-12-22T02:18:33;97244.22;;;1.69;71.10
80137;BME280;69466;55.948;37.484;2023-12-22T02:21:01;97244.44;;;1.68;71.16
80137;BME280;69466;55.948;37.484;2023-12-22T02:23:26;97238.47;;;1.66;71.37
80137;BME280;69466;55.948;37.484;2023-12-22T02:25:57;97231.06;;;1.68;71.37
80137;BME280;69466;55.948;37.484;2023-12-22T02:28:28;97224.38;;;1.59;71.44
80137;BME280;69466;55.948;37.484;2023-12-22T02:31:03;97237.28;;;1.62;71.76
80137;BME280;69466;55.948;37.484;2023-12-22T02:33:31;97232.19;;;1.60;71.81
80137;BME280;69466;55.948;37.484;2023-12-22T02:36:03;97227.88;;;1.59;72.15
80137;BME280;69466;55.948;37.484;2023-12-22T02:38:31;97233.53;;;1.69;71.41
80137;BME280;69466;55.948;37.484;2023-12-22T02:40:58;97235.53;;;1.74;71.02
80137;BME280;69466;55.948;37.484;2023-12-22T02:43:24;97232.88;;;1.74;71.50
80137;BME280;69466;55.948;37.484;2023-12-22T02:45:51;97227.44;;;1.81;70.63
80137;BME280;69466;55.948;37.484;2023-12-22T02:48:17;97240.59;;;1.82;70.94
80137;BME280;69466;55.948;37.484;2023-12-22T02:50:43;97228.88;;;1.83;70.40
80137;BME280;69466;55.948;37.484;2023-12-22T02:53:09;97222.44;;;1.84;70.44
80137;BME280;69466;55.948;37.484;2023-12-22T02:55:35;97213.19;;;1.87;69.81
80137;BME280;69466;55.948;37.484;2023-12-22T02:58:01;97213.09;;;1.93;69.96
80137;BME280;69466;55.948;37.484;2023-12-22T03:00:27;97208.56;;;1.94;70.45
80137;BME280;69466;55.948;37.484;2023-12-22T03:02:53;97194.22;;;1.88;70.06
80137;BME280;69466;55.948;37.484;2023-12-22T03:05:19;97190.66;;;1.94;69.02
80137;BME280;69466;55.948;37.484;2023-12-22T03:07:45;97190.00;;;1.99;68.92
80137;BME280;69466;55.948;37.484;2023-12-22T03:10:10;97187.53;;;1.97;68.68
80137;BME280;69466;55.948;37.484;2023-12-22T03:12:36;97189.78;;;2.00;69.48
80137;BME280;69466;55.948;37.484;2023-12-22T03:15:03;97189.09;;;2.05;69.10
80137;BME280;69466;55.948;37.484;2023-12-22T03:17:31;97192.34;;;2.07;70.14
80137;BME280;69466;55.948;37.484;2023-12-22T03:19:57;97198.09;;;2.10;70.04
80137;BME280;69466;55.948;37.484;2023-12-22T03:22:23;97185.81;;;2.03;70.05
80137;BME280;69466;55.948;37.484;2023-12-22T03:24:49;97192.47;;;2.00;70.22
80137;BME280;69466;55.948;37.484;2023-12-22T03:27:15;97204.13;;;2.06;70.67
80137;BME280;69466;55.948;37.484;2023-12-22T03:29:44;97206.41;;;2.02;69.96
80137;BME280;69466;55.948;37.484;2023-12-22T03:32:10;97198.84;;;1.99;70.56
80137;BME280;69466;55.948;37.484;2023-12-22T03:34:36;97203.97;;;2.01;70.47
80137;BME280;69466;55.948;37.484;2023-12-22T03:37:02;97204.69;;;2.08;70.52
80137;BME280;69466;55.948;37.484;2023-12-22T03:39:28;97201.66;;;2.04;70.74
80137;BME280;69466;55.948;37.484;2023-12-22T03:41:54;97190.22;;;1.97;71.87
80137;BME280;69466;55.948;37.484;2023-12-22T03:44:20;97195.81;;;1.96;71.18
80137;BME280;69466;55.948;37.484;2023-12-22T03:46:45;97196.16;;;1.99;71.34
80137;BME280;69466;55.948;37.484;2023-12-22T03:49:11;97194.16;;;1.95;71.05
80137;BME280;69466;55.948;37.484;2023-12-22T03:51:38;97185.31;;;1.94;70.70
80137;BME280;69466;55.948;37.484;2023-12-22T03:54:07;97183.81;;;1.98;71.63
80137;BME280;69466;55.948;37.484;2023-12-22T03:56:34;97180.13;;;1.81;72.18
80137;BME280;69466;55.948;37.484;2023-12-22T03:59:00;97176.72;;;1.92;72.00
80137;BME280;69466;55.948;37.484;2023-12-22T04:01:26;97162.13;;;1.88;72.08
80137;BME280;69466;55.948;37.484;2023-12-22T04:03:52;97154.78;;;1.84;72.31
80137;BME280;69466;55.948;37.484;2023-12-22T04:06:18;97185.03;;;1.84;72.74
80137;BME280;69466;55.948;37.484;2023-12-22T04:08:44;97173.44;;;1.90;72.28
80137;BME280;69466;55.948;37.484;2023-12-22T04:11:11;97168.78;;;1.86;72.31
80137;BME280;69466;55.948;37.484;2023-12-22T04:13:37;97159.56;;;1.82;72.40
80137;BME280;69466;55.948;37.484;2023-12-22T04:16:03;97168.25;;;1.77;73.06
80137;BME280;69466;55.948;37.484;2023-12-22T04:18:30;97170.56;;;1.73;72.75
80137;BME280;69466;55.948;37.484;2023-12-22T04:20:57;97160.69;;;1.74;72.72
80137;BME280;69466;55.948;37.484;2023-12-22T04:23:23;97162.41;;;1.68;73.42
80137;BME280;69466;55.948;37.484;2023-12-22T04:25:49;97159.88;;;1.73;72.56
80137;BME280;69466;55.948;37.484;2023-12-22T04:28:15;97156.81;;;1.70;73.23
80137;BME280;69466;55.948;37.484;2023-12-22T04:30:42;97149.41;;;1.72;73.26
80137;BME280;69466;55.948;37.484;2023-12-22T04:33:08;97157.78;;;1.75;72.90
80137;BME280;69466;55.948;37.484;2023-12-22T04:35:34;97148.38;;;1.73;72.74
80137;BME280;69466;55.948;37.484;2023-12-22T04:38:02;97139.75;;;1.71;72.83
80137;BME280;69466;55.948;37.484;2023-12-22T04:40:29;97148.66;;;1.65;73.19
80137;BME280;69466;55.948;37.484;2023-12-22T04:42:55;97135.72;;;1.62;72.88
80137;BME280;69466;55.948;37.484;2023-12-22T04:45:21;97155.94;;;1.58;72.82
80137;BME280;69466;55.948;37.484;2023-12-22T04:47:47;97128.84;;;1.54;73.15
80137;BME280;69466;55.948;37.484;2023-12-22T04:50:13;97141.69;;;1.64;73.24
80137;BME280;69466;55.948;37.484;2023-12-22T04:52:39;97148.66;;;1.65;72.92
80137;BME280;69466;55.948;37.484;2023-12-22T04:55:05;97135.16;;;1.60;73.32
80137;BME280;69466;55.948;37.484;2023-12-22T04:57:31;97139.75;;;1.53;73.12
80137;BME280;69466;55.948;37.484;2023-12-22T04:59:57;97136.19;;;1.59;73.25
80137;BME280;69466;55.948;37.484;2023-12-22T05:02:23;97132.91;;;1.57;73.71
80137;BME280;69466;55.948;37.484;2023-12-22T05:04:49;97126.06;;;1.61;73.33
80137;BME280;69466;55.948;37.484;2023-12-22T05:07:16;97119.94;;;1.60;73.49
80137;BME280;69466;55.948;37.484;2023-12-22T05:09:42;97116.00;;;1.63;73.18
80137;BME280;69466;55.948;37.484;2023-12-22T05:12:09;97135.16;;;1.60;73.39
80137;BME280;69466;55.948;37.484;2023-12-22T05:14:35;97122.16;;;1.63;73.09
80137;BME280;69466;55.948;37.484;2023-12-22T05:17:01;97120.22;;;1.52;72.90
80137;BME280;69466;55.948;37.484;2023-12-22T05:19:27;97119.50;;;1.63;72.27
80137;BME280;69466;55.948;37.484;2023-12-22T05:21:53;97121.50;;;1.50;72.38
80137;BME280;69466;55.948;37.484;2023-12-22T05:24:28;97108.72;;;1.52;72.48
80137;BME280;69466;55.948;37.484;2023-12-22T05:26:55;97108.56;;;1.47;73.03
80137;BME280;69466;55.948;37.484;2023-12-22T05:29:21;97116.88;;;1.57;72.73
80137;BME280;69466;55.948;37.484;2023-12-22T05:31:49;97090.03;;;1.33;72.80
80137;BME280;69466;55.948;37.484;2023-12-22T05:34:15;97099.88;;;1.33;72.90
80137;BME280;69466;55.948;37.484;2023-12-22T05:36:47;97085.28;;;1.17;72.90
80137;BME280;69466;55.948;37.484;2023-12-22T05:39:19;97097.50;;;1.25;72.87
80137;BME280;69466;55.948;37.484;2023-12-22T05:41:45;97107.69;;;1.34;72.82
80137;BME280;69466;55.948;37.484;2023-12-22T05:44:14;97125.66;;;1.46;73.35
80137;BME280;69466;55.948;37.484;2023-12-22T05:46:47;97098.53;;;1.24;72.89
80137;BME280;69466;55.948;37.484;2023-12-22T05:49:13;97063.97;;;1.11;73.36
80137;BME280;69466;55.948;37.484;2023-12-22T05:51:43;97123.03;;;1.39;72.96
80137;BME280;69466;55.948;37.484;2023-12-22T05:54:16;97136.25;;;1.52;74.20
80137;BME280;69466;55.948;37.484;2023-12-22T05:56:45;97092.94;;;1.32;73.20
80137;BME280;69466;55.948;37.484;2023-12-22T05:59:18;97115.19;;;1.44;73.23
80137;BME280;69466;55.948;37.484;2023-12-22T06:01:44;97061.25;;;1.17;73.35
80137;BME280;69466;55.948;37.484;2023-12-22T06:04:10;97094.03;;;1.43;73.17
80137;BME280;69466;55.948;37.484;2023-12-22T06:06:37;97151.63;;;1.57;73.61
80137;BME280;69466;55.948;37.484;2023-12-22T06:09:04;97120.97;;;1.41;73.38
80137;BME280;69466;55.948;37.484;2023-12-22T06:11:36;97135.94;;;1.42;73.39
80137;BME280;69466;55.948;37.484;2023-12-22T06:14:02;97119.19;;;1.35;73.65
80137;BME280;69466;55.948;37.484;2023-12-22T06:16:28;97125.34;;;1.36;73.63
80137;BME280;69466;55.948;37.484;2023-12-22T06:18:54;97129.66;;;1.37;73.74
80137;BME280;69466;55.948;37.484;2023-12-22T06:21:23;97125.50;;;1.41;73.63
80137;BME280;69466;55.948;37.484;2023-12-22T06:23:49;97128.59;;;1.38;74.20
80137;BME280;69466;55.948;37.484;2023-12-22T06:30:01;97061.75;;;1.08;74.07
80137;BME280;69466;55.948;37.484;2023-12-22T06:33:01;97135.44;;;1.52;74.27
80137;BME280;69466;55.948;37.484;2023-12-22T06:35:30;97138.63;;;1.42;73.64
80137;BME280;69466;55.948;37.484;2023-12-22T06:42:21;97134.84;;;1.50;74.24
80137;BME280;69466;55.948;37.484;2023-12-22T06:44:53;97139.44;;;1.43;74.58
80137;BME280;69466;55.948;37.484;2023-12-22T06:47:20;97142.13;;;1.43;73.83
80137;BME280;69466;55.948;37.484;2023-12-22T06:56:59;97144.13;;;1.47;74.16
80137;BME280;69466;55.948;37.484;2023-12-22T06:59:58;97154.28;;;1.57;73.55
80137;BME280;69466;55.948;37.484;2023-12-22T07:02:26;97137.16;;;1.46;73.92
80137;BME280;69466;55.948;37.484;2023-12-22T07:07:47;97160.81;;;1.61;73.77
80137;BME280;69466;55.948;37.484;2023-12-22T07:10:13;97155.94;;;1.58;73.98
80137;BME280;69466;55.948;37.484;2023-12-22T07:13:05;97132.41;;;1.48;73.60
80137;BME280;69466;55.948;37.484;2023-12-22T07:15:33;97108.13;;;1.31;73.69
80137;BME280;69466;55.948;37.484;2023-12-22T07:17:59;97118.81;;;1.31;74.36
80137;BME280;69466;55.948;37.484;2023-12-22T07:20:25;97169.22;;;1.64;73.85
80137;BME280;69466;55.948;37.484;2023-12-22T07:22:51;97123.56;;;1.48;74.12
80137;BME280;69466;55.948;37.484;2023-12-22T07:25:19;97160.09;;;1.72;73.92
80137;BME280;69466;55.948;37.484;2023-12-22T07:27:45;97109.84;;;1.44;73.82
80137;BME280;69466;55.948;37.484;2023-12-22T07:30:13;97147.03;;;1.64;73.66
80137;BME280;69466;55.948;37.484;2023-12-22T07:32:46;97154.38;;;1.68;74.02
80137;BME280;69466;55.948;37.484;2023-12-22T07:35:15;97136.84;;;1.72;73.19
80137;BME280;69466;55.948;37.484;2023-12-22T07:38:16;97123.72;;;1.53;73.34
80137;BME280;69466;55.948;37.484;2023-12-22T07:40:42;97108.03;;;1.56;72.94
80137;BME280;69466;55.948;37.484;2023-12-22T07:43:10;97152.00;;;1.78;72.95
80137;BME280;69466;55.948;37.484;2023-12-22T07:45:38;97145.38;;;1.81;73.11
80137;BME280;69466;55.948;37.484;2023-12-22T07:48:05;97112.34;;;1.57;73.64
80137;BME280;69466;55.948;37.484;2023-12-22T07:50:36;97147.44;;;1.79;73.06
80137;BME280;69466;55.948;37.484;2023-12-22T07:53:03;97140.91;;;1.75;72.59
80137;BME280;69466;55.948;37.484;2023-12-22T07:55:29;97109.25;;;1.60;73.44
80137;BME280;69466;55.948;37.484;2023-12-22T07:57:55;97130.31;;;1.68;72.83
80137;BME280;69466;55.948;37.484;2023-12-22T08:00:54;97129.41;;;1.74;73.22
80137;BME280;69466;55.948;37.484;2023-12-22T08:06:19;97132.53;;;1.71;72.89
80137;BME280;69466;55.948;37.484;2023-12-22T08:09:03;97075.84;;;1.33;72.71
80137;BME280;69466;55.948;37.484;2023-12-22T08:11:32;97100.56;;;1.65;73.04
80137;BME280;69466;55.948;37.484;2023-12-22T08:14:05;97095.50;;;1.57;72.81
80137;BME280;69466;55.948;37.484;2023-12-22T08:21:04;97063.97;;;1.47;72.67
80137;BME280;69466;55.948;37.484;2023-12-22T08:23:32;97093.66;;;1.57;72.39
80137;BME280;69466;55.948;37.484;2023-12-22T08:26:23;97080.56;;;1.67;73.11
80137;BME280;69466;55.948;37.484;2023-12-22T08:29:45;97026.50;;;1.36;72.28
80137;BME280;69466;55.948;37.484;2023-12-22T08:37:16;97043.03;;;1.44;72.12
80137;BME280;69466;55.948;37.484;2023-12-22T08:53:58;97043.47;;;1.59;71.15
80137;BME280;69466;55.948;37.484;2023-12-22T09:10:52;97044.38;;;1.53;70.55
80137;BME280;69466;55.948;37.484;2023-12-22T09:18:59;97112.91;;;1.96;69.74
80137;BME280;69466;55.948;37.484;2023-12-22T09:32:33;97049.84;;;1.58;69.45
80137;BME280;69466;55.948;37.484;2023-12-22T09:35:01;97088.63;;;1.79;69.53
80137;BME280;69466;55.948;37.484;2023-12-22T09:37:30;97083.63;;;2.01;69.23
80137;BME280;69466;55.948;37.484;2023-12-22T09:39:56;97027.94;;;1.68;68.84
80137;BME280;69466;55.948;37.484;2023-12-22T09:42:29;97071.91;;;1.84;69.16
80137;BME280;69466;55.948;37.484;2023-12-22T09:48:23;97042.06;;;1.57;68.71
80137;BME280;69466;55.948;37.484;2023-12-22T09:51:12;97088.63;;;1.79;68.49
80137;BME280;69466;55.948;37.484;2023-12-22T09:54:02;97063.16;;;1.65;68.76
80137;BME280;69466;55.948;37.484;2023-12-22T09:58:15;97072.16;;;1.82;68.79
80137;BME280;69466;55.948;37.484;2023-12-22T10:01:04;97046.19;;;1.71;68.43
80137;BME280;69466;55.948;37.484;2023-12-22T10:06:27;97053.94;;;1.91;67.84
80137;BME280;69466;55.948;37.484;2023-12-22T10:08:55;97069.09;;;1.97;67.58
80137;BME280;69466;55.948;37.484;2023-12-22T10:15:18;97051.88;;;1.74;67.46
80137;BME280;69466;55.948;37.484;2023-12-22T10:18:32;96995.41;;;1.41;68.12
80137;BME280;69466;55.948;37.484;2023-12-22T10:20:58;97042.84;;;1.75;68.38
80137;BME280;69466;55.948;37.484;2023-12-22T10:23:25;96984.72;;;1.41;67.67
80137;BME280;69466;55.948;37.484;2023-12-22T11:12:12;97010.72;;;1.64;68.63
80137;BME280;69466;55.948;37.484;2023-12-22T11:18:53;96976.94;;;1.40;69.10
80137;BME280;69466;55.948;37.484;2023-12-22T11:21:26;96982.19;;;1.46;68.89
80137;BME280;69466;55.948;37.484;2023-12-22T11:28:04;96990.25;;;1.58;69.08
80137;BME280;69466;55.948;37.484;2023-12-22T11:31:55;96954.09;;;1.25;68.62
80137;BME280;69466;55.948;37.484;2023-12-22T11:37:42;96945.59;;;1.17;68.66
80137;BME280;69466;55.948;37.484;2023-12-22T11:40:11;96932.03;;;1.18;68.74
80137;BME280;69466;55.948;37.484;2023-12-22T11:49:57;96981.66;;;1.56;69.17
80137;BME280;69466;55.948;37.484;2023-12-22T11:53:40;96960.06;;;1.27;69.66
80137;BME280;69466;55.948;37.484;2023-12-22T11:56:45;96926.97;;;1.10;69.71
80137;BME280;69466;55.948;37.484;2023-12-22T12:14:41;96921.31;;;0.88;70.20
80137;BME280;69466;55.948;37.484;2023-12-22T12:20:06;96988.38;;;1.28;70.43
80137;BME280;69466;55.948;37.484;2023-12-22T12:24:01;96984.75;;;1.23;70.90
80137;BME280;69466;55.948;37.484;2023-12-22T12:30:40;96975.63;;;1.12;71.00
80137;BME280;69466;55.948;37.484;2023-12-22T12:37:23;96988.28;;;1.05;72.16
80137;BME280;69466;55.948;37.484;2023-12-22T12:41:42;96980.63;;;0.91;71.73
80137;BME280;69466;55.948;37.484;2023-12-22T13:02:16;96962.38;;;0.87;72.66
80137;BME280;69466;55.948;37.484;2023-12-22T13:32:20;96953.13;;;0.54;74.09
80137;BME280;69466;55.948;37.484;2023-12-22T13:48:39;96934.50;;;0.65;75.13
80137;BME280;69466;55.948;37.484;2023-12-22T13:56:13;96895.66;;;0.33;76.04
80137;BME280;69466;55.948;37.484;2023-12-22T13:58:46;96909.91;;;0.45;75.56
80137;BME280;69466;55.948;37.484;2023-12-22T14:05:39;96932.19;;;0.69;75.85
80137;BME280;69466;55.948;37.484;2023-12-22T14:08:11;96877.63;;;0.35;76.01
80137;BME280;69466;55.948;37.484;2023-12-22T14:14:15;96904.34;;;0.47;75.77
80137;BME280;69466;55.948;37.484;2023-12-22T14:16:57;96895.16;;;0.42;76.02
80137;BME280;69466;55.948;37.484;2023-12-22T14:19:48;96923.94;;;0.59;76.15
80137;BME280;69466;55.948;37.484;2023-12-22T14:31:00;96872.19;;;0.60;76.27
80137;BME280;69466;55.948;37.484;2023-12-22T14:33:26;96873.75;;;0.49;75.71
80137;BME280;69466;55.948;37.484;2023-12-22T14:35:52;96897.97;;;0.66;76.07
80137;BME280;69466;55.948;37.484;2023-12-22T14:38:40;96886.72;;;0.64;76.39
80137;BME280;69466;55.948;37.484;2023-12-22T14:41:32;96855.91;;;0.50;75.67
80137;BME280;69466;55.948;37.484;2023-12-22T14:51:25;96913.91;;;0.91;75.92
80137;BME280;69466;55.948;37.484;2023-12-22T14:53:55;96923.44;;;0.98;76.66
80137;BME280;69466;55.948;37.484;2023-12-22T14:57:14;96905.91;;;0.72;76.55
80137;BME280;69466;55.948;37.484;2023-12-22T15:00:25;96942.81;;;0.94;76.38
80137;BME280;69466;55.948;37.484;2023-12-22T15:08:02;96917.63;;;0.71;77.80
80137;BME280;69466;55.948;37.484;2023-12-22T15:14:13;96877.81;;;0.52;77.80
80137;BME280;69466;55.948;37.484;2023-12-22T15:16:42;96903.16;;;0.61;77.97
80137;BME280;69466;55.948;37.484;2023-12-22T15:19:14;96888.63;;;0.75;78.32
80137;BME280;69466;55.948;37.484;2023-12-22T15:21:43;96922.59;;;0.86;77.53
80137;BME280;69466;55.948;37.484;2023-12-22T15:24:12;96890.19;;;0.64;77.97
80137;BME280;69466;55.948;37.484;2023-12-22T15:26:50;96856.06;;;0.36;78.20
80137;BME280;69466;55.948;37.484;2023-12-22T15:29:16;96878.28;;;0.49;78.46
80137;BME280;69466;55.948;37.484;2023-12-22T15:31:55;96902.84;;;0.69;78.32
80137;BME280;69466;55.948;37.484;2023-12-22T15:34:26;96879.41;;;0.59;78.19
80137;BME280;69466;55.948;37.484;2023-12-22T15:36:53;96862.63;;;0.52;78.10
80137;BME280;69466;55.948;37.484;2023-12-22T15:39:21;96921.81;;;0.79;78.54
80137;BME280;69466;55.948;37.484;2023-12-22T15:41:48;96858.44;;;0.44;78.38
80137;BME280;69466;55.948;37.484;2023-12-22T15:44:14;96888.25;;;0.71;78.21
80137;BME280;69466;55.948;37.484;2023-12-22T15:46:41;96892.06;;;0.64;78.42
80137;BME280;69466;55.948;37.484;2023-12-22T15:49:10;96885.28;;;0.79;78.17
80137;BME280;69466;55.948;37.484;2023-12-22T15:51:36;96874.56;;;0.68;78.15
80137;BME280;69466;55.948;37.484;2023-12-22T15:54:02;96900.78;;;0.71;78.44
80137;BME280;69466;55.948;37.484;2023-12-22T15:56:31;96868.25;;;0.62;77.95
80137;BME280;69466;55.948;37.484;2023-12-22T15:58:59;96870.41;;;0.72;77.73
80137;BME280;69466;55.948;37.484;2023-12-22T16:01:25;96854.47;;;0.65;78.06
80137;BME280;69466;55.948;37.484;2023-12-22T16:03:56;96881.22;;;0.77;78.18
80137;BME280;69466;55.948;37.484;2023-12-22T16:06:23;96854.59;;;0.70;77.35
80137;BME280;69466;55.948;37.484;2023-12-22T16:09:17;96835.22;;;0.63;77.54
80137;BME280;69466;55.948;37.484;2023-12-22T16:11:47;96812.84;;;0.46;77.87
80137;BME280;69466;55.948;37.484;2023-12-22T16:14:15;96850.22;;;0.76;77.45
80137;BME280;69466;55.948;37.484;2023-12-22T16:16:41;96868.06;;;0.94;77.40
80137;BME280;69466;55.948;37.484;2023-12-22T16:19:09;96860.72;;;0.89;76.99
80137;BME280;69466;55.948;37.484;2023-12-22T16:21:41;96809.22;;;0.59;76.55
80137;BME280;69466;55.948;37.484;2023-12-22T16:24:46;96846.50;;;0.95;76.77
80137;BME280;69466;55.948;37.484;2023-12-22T16:27:15;96828.47;;;0.91;77.08
80137;BME280;69466;55.948;37.484;2023-12-22T16:29:52;96811.97;;;0.82;76.56
80137;BME280;69466;55.948;37.484;2023-12-22T16:32:39;96843.63;;;1.08;76.81
80137;BME280;69466;55.948;37.484;2023-12-22T16:35:05;96828.44;;;1.20;76.35
80137;BME280;69466;55.948;37.484;2023-12-22T16:37:31;96806.72;;;1.05;75.76
80137;BME280;69466;55.948;37.484;2023-12-22T16:39:57;96825.44;;;1.28;76.52
80137;BME280;69466;55.948;37.484;2023-12-22T16:42:26;96812.66;;;1.19;76.66
80137;BME280;69466;55.948;37.484;2023-12-22T16:44:53;96800.19;;;1.01;76.14
80137;BME280;69466;55.948;37.484;2023-12-22T16:47:42;96841.38;;;1.35;76.04
80137;BME280;69466;55.948;37.484;2023-12-22T16:50:11;96834.41;;;1.34;76.49
80137;BME280;69466;55.948;37.484;2023-12-22T16:52:37;96788.03;;;1.17;76.22
80137;BME280;69466;55.948;37.484;2023-12-22T16:58:17;96774.56;;;1.12;75.85
80137;BME280;69466;55.948;37.484;2023-12-22T17:00:44;96849.41;;;1.47;76.27
80137;BME280;69466;55.948;37.484;2023-12-22T17:04:06;96799.88;;;1.21;76.46
80137;BME280;69466;55.948;37.484;2023-12-22T17:06:52;96822.00;;;1.40;76.43
80137;BME280;69466;55.948;37.484;2023-12-22T17:09:28;96834.78;;;1.61;76.84
80137;BME280;69466;55.948;37.484;2023-12-22T17:11:54;96809.44;;;1.52;76.22
80137;BME280;69466;55.948;37.484;2023-12-22T17:15:00;96825.28;;;1.65;76.24
80137;BME280;69466;55.948;37.484;2023-12-22T17:24:35;96822.69;;;1.70;76.09
80137;BME280;69466;55.948;37.484;2023-12-22T17:32:00;96813.28;;;1.79;76.08
80137;BME280;69466;55.948;37.484;2023-12-22T17:34:36;96768.22;;;1.59;76.31
80137;BME280;69466;55.948;37.484;2023-12-22T17:37:02;96806.22;;;1.73;76.93
80137;BME280;69466;55.948;37.484;2023-12-22T17:43:22;96782.72;;;1.75;76.35
80137;BME280;69466;55.948;37.484;2023-12-22T17:46:33;96786.00;;;1.77;77.14
80137;BME280;69466;55.948;37.484;2023-12-22T17:49:54;96815.75;;;2.04;76.91
80137;BME280;69466;55.948;37.484;2023-12-22T17:52:20;96737.09;;;1.53;76.78
80137;BME280;69466;55.948;37.484;2023-12-22T17:55:13;96753.22;;;1.70;76.95
80137;BME280;69466;55.948;37.484;2023-12-22T18:01:19;96734.88;;;1.62;77.24
80137;BME280;69466;55.948;37.484;2023-12-22T18:03:48;96733.50;;;1.59;77.14
80137;BME280;69466;55.948;37.484;2023-12-22T18:10:19;96731.84;;;1.58;77.34
80137;BME280;69466;55.948;37.484;2023-12-22T18:12:45;96785.41;;;1.87;77.63
80137;BME280;69466;55.948;37.484;2023-12-22T18:15:32;96746.84;;;1.71;77.73
80137;BME280;69466;55.948;37.484;2023-12-22T18:17:58;96774.03;;;1.91;78.03
80137;BME280;69466;55.948;37.484;2023-12-22T18:31:49;96743.91;;;1.84;78.58
80137;BME280;69466;55.948;37.484;2023-12-22T18:34:18;96709.19;;;1.61;78.61
80137;BME280;69466;55.948;37.484;2023-12-22T18:36:46;96748.56;;;1.89;78.77
80137;BME280;69466;55.948;37.484;2023-12-22T18:39:40;96741.59;;;1.88;78.79
80137;BME280;69466;55.948;37.484;2023-12-22T18:45:00;96692.09;;;1.62;78.54
80137;BME280;69466;55.948;37.484;2023-12-22T18:47:26;96715.78;;;1.82;78.55
80137;BME280;69466;55.948;37.484;2023-12-22T18:49:58;96679.78;;;1.72;79.10